createdAt,value
2023-04-15T00:01:53.724Z,99166.69
2023-04-15T00:04:21.834Z,99169.81
2023-04-15T00:06:53.627Z,99167.41
2023-04-15T00:09:22.250Z,99162.31
2023-04-15T00:11:51.178Z,99155.38
2023-04-15T00:14:18.457Z,99159.88
2023-04-15T00:16:45.795Z,99166.69
2023-04-15T00:19:13.122Z,99160.72
2023-04-15T00:21:40.594Z,99161.72
2023-04-15T00:24:07.854Z,99163.13
2023-04-15T00:26:36.594Z,99161.56
2023-04-15T00:29:03.860Z,99158.53
2023-04-15T00:31:31.361Z,99144.63
2023-04-15T00:33:58.746Z,99148.41
2023-04-15T00:36:26.270Z,99145.78
2023-04-15T00:38:54.001Z,99142.63
2023-04-15T00:41:22.961Z,99142.63
2023-04-15T00:43:51.554Z,99141.53
2023-04-15T00:46:20.681Z,99146.00
2023-04-15T00:48:48.759Z,99147.25
2023-04-15T00:51:16.001Z,99148.47
2023-04-15T00:53:43.683Z,99141.41
2023-04-15T00:56:10.919Z,99145.78
2023-04-15T00:58:38.204Z,99143.38
2023-04-15T01:01:06.883Z,99139.41
2023-04-15T01:03:34.616Z,99136.44
2023-04-15T01:06:03.904Z,99135.09
2023-04-15T01:08:31.975Z,99129.50
2023-04-15T01:10:59.578Z,99131.94
2023-04-15T01:13:27.020Z,99123.44
2023-04-15T01:15:54.564Z,99133.63
2023-04-15T01:18:23.840Z,99117.59
2023-04-15T01:20:51.115Z,99132.91
2023-04-15T01:23:18.480Z,99118.34
2023-04-15T01:25:47.892Z,99115.75
2023-04-15T01:28:15.154Z,99125.84
2023-04-15T01:30:42.920Z,99124.84
2023-04-15T01:33:10.201Z,99114.16
2023-04-15T01:35:37.522Z,99117.34
2023-04-15T01:38:07.322Z,99106.16
2023-04-15T01:40:34.988Z,99105.91
2023-04-15T01:43:03.763Z,99108.47
2023-04-15T01:45:31.084Z,99117.19
2023-04-15T01:47:58.426Z,99110.06
2023-04-15T01:50:26.084Z,99112.94
2023-04-15T01:52:53.457Z,99101.31
2023-04-15T01:55:21.092Z,99109.31
2023-04-15T01:57:48.340Z,99105.91
2023-04-15T02:00:17.594Z,99101.19
2023-04-15T02:02:45.020Z,99095.28
2023-04-15T02:05:12.435Z,99092.72
2023-04-15T02:07:39.676Z,99092.31
2023-04-15T02:10:07.534Z,99094.53
2023-04-15T02:12:34.789Z,99093.81
2023-04-15T02:15:02.053Z,99083.97
2023-04-15T02:17:31.598Z,99084.34
2023-04-15T02:19:59.269Z,99088.69
2023-04-15T02:22:26.567Z,99083.72
2023-04-15T02:24:53.892Z,99080.22
2023-04-15T02:27:22.452Z,99083.47
2023-04-15T02:29:51.017Z,99082.50
2023-04-15T02:32:18.639Z,99082.78
2023-04-15T02:34:47.283Z,99073.63
2023-04-15T02:37:15.159Z,99078.13
2023-04-15T02:39:42.607Z,99075.44
2023-04-15T02:42:09.872Z,99087.09
2023-04-15T02:44:37.421Z,99079.38
2023-04-15T02:47:06.956Z,99084.47
2023-04-15T02:49:34.203Z,99083.34
2023-04-15T02:52:03.070Z,99091.16
2023-04-15T02:54:30.560Z,99088.69
2023-04-15T02:56:58.034Z,99086.41
2023-04-15T02:59:25.408Z,99078.00
2023-04-15T03:01:52.881Z,99081.63
2023-04-15T03:04:20.314Z,99073.00
2023-04-15T03:06:47.621Z,99079.00
2023-04-15T03:09:16.433Z,99074.66
2023-04-15T03:11:43.746Z,99067.47
2023-04-15T03:14:11.123Z,99064.66
2023-04-15T03:16:38.390Z,99068.06
2023-04-15T03:19:05.670Z,99061.03
2023-04-15T03:21:33.046Z,99062.34
2023-04-15T03:24:00.791Z,99065.75
2023-04-15T03:26:29.959Z,99059.94
2023-04-15T03:28:57.566Z,99060.56
2023-04-15T03:31:24.912Z,99059.44
2023-04-15T03:33:52.225Z,99049.16
2023-04-15T03:36:19.560Z,99052.25
2023-04-15T03:38:46.838Z,99049.25
2023-04-15T03:41:14.238Z,99052.03
2023-04-15T03:43:42.795Z,99044.88
2023-04-15T03:46:10.122Z,99040.97
2023-04-15T03:48:37.374Z,99048.63
2023-04-15T03:51:04.694Z,99045.38
2023-04-15T03:53:31.974Z,99042.69
2023-04-15T03:55:59.210Z,99043.16
2023-04-15T03:58:26.499Z,99045.38
2023-04-15T04:00:55.727Z,99033.47
2023-04-15T04:03:23.166Z,99035.78
2023-04-15T04:05:50.922Z,99037.47
2023-04-15T04:08:19.499Z,99048.50
2023-04-15T04:10:46.736Z,99052.03
2023-04-15T04:13:14.001Z,99042.91
2023-04-15T04:15:41.288Z,99042.09
2023-04-15T04:18:09.940Z,99040.38
2023-04-15T04:20:37.247Z,99047.56
2023-04-15T04:23:04.506Z,99048.97
2023-04-15T04:25:32.131Z,99052.53
2023-04-15T04:27:59.376Z,99050.69
2023-04-15T04:30:26.618Z,99048.78
2023-04-15T04:32:53.945Z,99050.56
2023-04-15T04:35:22.855Z,99052.91
2023-04-15T04:37:50.833Z,99059.81
2023-04-15T04:40:18.243Z,99054.31
2023-04-15T04:42:45.969Z,99060.03
2023-04-15T04:45:13.359Z,99064.28
2023-04-15T04:47:40.670Z,99063.22
2023-04-15T04:50:09.091Z,99074.00
2023-04-15T04:52:37.757Z,99076.56
2023-04-15T04:55:05.355Z,99073.38
2023-04-15T04:57:32.651Z,99078.34
2023-04-15T04:59:59.911Z,99082.97
2023-04-15T05:02:27.619Z,99074.59
2023-04-15T05:04:55.372Z,99079.91
2023-04-15T05:07:22.682Z,99071.41
2023-04-15T05:09:51.461Z,99073.59
2023-04-15T05:12:18.763Z,99076.16
2023-04-15T05:14:46.694Z,99081.59
2023-04-15T05:17:14.087Z,99080.25
2023-04-15T05:19:41.332Z,99080.16
2023-04-15T05:22:08.760Z,99078.94
2023-04-15T05:24:36.426Z,99087.19
2023-04-15T05:27:05.161Z,99082.47
2023-04-15T05:29:32.755Z,99082.81
2023-04-15T05:32:00.046Z,99086.69
2023-04-15T05:34:27.340Z,99081.72
2023-04-15T05:36:54.605Z,99087.88
2023-04-15T05:39:21.966Z,99091.75
2023-04-15T05:41:49.283Z,99090.06
2023-04-15T05:44:17.836Z,99088.94
2023-04-15T05:46:45.094Z,99099.66
2023-04-15T05:49:12.345Z,99106.72
2023-04-15T05:51:39.681Z,99108.63
2023-04-15T05:54:07.004Z,99110.94
2023-04-15T05:56:34.272Z,99113.97
2023-04-15T05:59:01.847Z,99110.44
2023-04-15T06:01:30.696Z,99115.78
2023-04-15T06:03:58.379Z,99118.75
2023-04-15T06:06:25.685Z,99118.00
2023-04-15T06:08:52.979Z,99127.19
2023-04-15T06:11:21.389Z,99128.19
2023-04-15T06:13:48.773Z,99125.53
2023-04-15T06:16:16.457Z,99128.16
2023-04-15T06:18:45.283Z,99125.47
2023-04-15T06:21:12.698Z,99127.94
2023-04-15T06:23:41.101Z,99125.38
2023-04-15T06:26:08.463Z,99131.28
2023-04-15T06:28:35.918Z,99134.69
2023-04-15T06:31:03.341Z,99131.84
2023-04-15T06:33:30.669Z,99136.09
2023-04-15T06:35:59.297Z,99141.19
2023-04-15T06:38:26.611Z,99143.97
2023-04-15T06:40:54.070Z,99140.91
2023-04-15T06:43:21.444Z,99150.31
2023-04-15T06:45:48.761Z,99150.28
2023-04-15T06:48:16.231Z,99149.25
2023-04-15T06:50:43.599Z,99148.56
2023-04-15T06:53:12.380Z,99149.22
2023-04-15T06:55:40.229Z,99143.50
2023-04-15T06:58:07.527Z,99144.47
2023-04-15T07:00:34.889Z,99150.69
2023-04-15T07:03:03.632Z,99154.69
2023-04-15T07:05:32.469Z,99157.09
2023-04-15T07:08:00.406Z,99161.53
2023-04-15T07:10:29.070Z,99167.94
2023-04-15T07:12:56.464Z,99159.72
2023-04-15T07:15:24.182Z,99164.78
2023-04-15T10:54:36.202Z,99352.84
2023-04-15T10:57:15.626Z,99361.16
2023-04-15T11:00:04.742Z,99351.22
2023-04-15T11:04:57.445Z,99357.38
2023-04-15T11:07:38.465Z,99361.25
2023-04-15T11:13:51.322Z,99367.41
2023-04-15T11:16:19.249Z,99379.41
2023-04-15T11:18:55.607Z,99379.31
2023-04-15T11:21:26.931Z,99377.31
2023-04-15T11:23:54.343Z,99384.50
2023-04-15T11:26:27.692Z,99394.06
2023-04-15T11:28:56.956Z,99395.00
2023-04-15T11:31:28.625Z,99393.28
2023-04-15T11:33:58.945Z,99395.06
2023-04-15T11:36:29.799Z,99405.66
2023-04-15T11:38:59.252Z,99393.06
2023-04-15T11:41:26.836Z,99407.09
2023-04-15T11:43:55.572Z,99404.47
2023-04-15T11:46:29.613Z,99403.06
2023-04-15T11:48:56.979Z,99409.78
2023-04-15T11:51:24.371Z,99412.03
2023-04-15T11:53:54.560Z,99413.72
2023-04-15T11:56:24.261Z,99416.94
2023-04-15T11:58:54.132Z,99420.56
2023-04-15T12:01:32.209Z,99424.16
2023-04-15T12:04:01.514Z,99426.88
2023-04-15T12:06:34.902Z,99428.88
2023-04-15T12:09:08.539Z,99420.78
2023-04-15T12:11:41.592Z,99435.25
2023-04-15T12:14:28.246Z,99441.19
2023-04-15T12:17:00.207Z,99428.50
2023-04-15T12:19:30.111Z,99444.44
2023-04-15T12:22:01.152Z,99440.47
2023-04-15T12:24:29.313Z,99440.41
2023-04-15T12:26:58.151Z,99457.03
2023-04-15T12:29:28.602Z,99459.91
2023-04-15T12:31:59.151Z,99451.84
2023-04-15T12:34:31.645Z,99456.13
2023-04-15T12:37:01.068Z,99459.72
2023-04-15T12:39:31.149Z,99464.13
2023-04-15T12:42:00.081Z,99459.44
2023-04-15T12:44:27.902Z,99468.41
2023-04-15T12:46:57.541Z,99478.16
2023-04-15T12:49:25.470Z,99466.41
2023-04-15T12:51:54.784Z,99466.41
2023-04-15T12:54:22.507Z,99479.44
2023-04-15T12:56:51.695Z,99486.41
2023-04-15T12:59:19.445Z,99485.16
2023-04-15T13:01:47.798Z,99486.22
2023-04-15T13:04:17.451Z,99488.75
2023-04-15T13:06:45.013Z,99491.63
2023-04-15T13:09:12.411Z,99495.81
2023-04-15T13:11:39.802Z,99499.69
2023-04-15T13:14:09.606Z,99495.47
2023-04-15T13:16:37.192Z,99500.38
2023-04-15T13:19:05.460Z,99487.41
2023-04-15T13:21:35.751Z,99505.38
2023-04-15T13:24:04.248Z,99500.78
2023-04-15T13:26:32.279Z,99505.16
2023-04-15T13:29:00.556Z,99506.00
2023-04-15T13:31:28.277Z,99498.63
2023-04-15T13:33:55.760Z,99508.97
2023-04-15T13:36:23.191Z,99512.81
2023-04-15T13:38:51.949Z,99511.63
2023-04-15T13:41:20.036Z,99507.97
2023-04-15T13:43:47.454Z,99504.75
2023-04-15T13:46:15.061Z,99519.59
2023-04-15T13:48:42.682Z,99521.81
2023-04-15T13:51:10.357Z,99524.00
2023-04-15T13:53:39.404Z,99525.38
2023-04-15T13:56:09.283Z,99514.66
2023-04-15T13:58:37.397Z,99529.06
2023-04-15T14:01:06.778Z,99523.72
2023-04-15T14:03:35.857Z,99522.94
2023-04-15T14:06:03.779Z,99519.72
2023-04-15T14:08:31.305Z,99522.59
2023-04-15T14:10:58.748Z,99530.97
2023-04-15T14:13:27.430Z,99534.38
2023-04-15T14:15:54.825Z,99527.94
2023-04-15T14:18:22.215Z,99542.00
2023-04-15T14:20:49.593Z,99543.69
2023-04-15T14:23:17.069Z,99545.31
2023-04-15T14:25:46.696Z,99548.94
2023-04-15T14:28:15.720Z,99551.06
2023-04-15T14:30:46.394Z,99555.00
2023-04-15T14:33:13.914Z,99562.47
2023-04-15T14:35:41.313Z,99564.03
2023-04-15T14:38:11.096Z,99562.59
2023-04-15T14:40:38.948Z,99565.28
2023-04-15T14:43:06.320Z,99564.81
2023-04-15T14:45:33.761Z,99570.25
2023-04-15T14:48:02.690Z,99567.19
2023-04-15T14:50:30.261Z,99571.75
2023-04-15T14:52:57.631Z,99575.28
2023-04-15T14:55:25.011Z,99578.47
2023-04-15T14:57:52.389Z,99578.19
2023-04-15T15:00:19.930Z,99581.19
2023-04-15T15:02:48.101Z,99587.38
2023-04-15T15:05:17.014Z,99589.53
2023-04-15T15:07:44.490Z,99587.44
2023-04-15T15:10:11.906Z,99593.94
2023-04-15T15:12:39.324Z,99595.19
2023-04-15T15:15:19.544Z,99591.22
2023-04-15T15:17:58.464Z,99600.91
2023-04-15T15:20:28.998Z,99607.06
2023-04-15T15:22:56.417Z,99604.16
2023-04-15T15:25:23.896Z,99605.94
2023-04-15T15:27:53.374Z,99616.47
2023-04-15T15:30:20.875Z,99610.31
2023-04-15T15:32:48.327Z,99630.91
2023-04-15T15:35:16.261Z,99626.00
2023-04-15T15:37:46.636Z,99628.88
2023-04-15T15:40:14.400Z,99627.50
2023-04-15T15:42:42.767Z,99631.78
2023-04-15T15:45:10.921Z,99627.97
2023-04-15T15:47:38.508Z,99639.53
2023-04-15T15:50:07.599Z,99639.09
2023-04-15T15:52:35.119Z,99634.41
2023-04-15T15:55:05.367Z,99644.25
2023-04-15T15:57:32.821Z,99649.84
2023-04-15T16:00:10.513Z,99653.78
2023-04-15T16:03:05.137Z,99647.53
2023-04-15T16:05:27.113Z,99654.06
2023-04-15T16:07:56.368Z,99654.69
2023-04-15T16:10:25.268Z,99658.50
2023-04-15T16:12:52.707Z,99662.06
2023-04-15T16:15:20.294Z,99656.25
2023-04-15T16:17:47.710Z,99666.56
2023-04-15T16:20:15.149Z,99665.47
2023-04-15T16:22:42.570Z,99665.97
2023-04-15T16:25:10.566Z,99665.47
2023-04-15T16:27:54.638Z,99681.81
2023-04-15T16:30:27.015Z,99685.84
2023-04-15T16:32:54.412Z,99684.31
2023-04-15T16:35:21.832Z,99685.97
2023-04-15T16:37:49.240Z,99681.75
2023-04-15T16:40:16.742Z,99685.16
2023-04-15T16:42:45.514Z,99696.75
2023-04-15T16:45:12.983Z,99692.94
2023-04-15T16:47:42.384Z,99696.53
2023-04-15T16:50:10.555Z,99696.97
2023-04-15T16:52:37.954Z,99702.56
2023-04-15T16:55:05.999Z,99698.41
2023-04-15T16:57:50.633Z,99703.22
2023-04-15T17:00:22.175Z,99710.63
2023-04-15T17:02:49.755Z,99715.06
2023-04-15T17:05:17.353Z,99710.19
2023-04-15T17:07:44.806Z,99723.78
2023-04-15T17:10:13.709Z,99726.00
2023-04-15T17:12:41.420Z,99726.91
2023-04-15T17:15:09.975Z,99728.56
2023-04-15T17:17:40.384Z,99733.34
2023-04-15T17:20:08.272Z,99723.44
2023-04-15T17:22:35.760Z,99745.16
2023-04-15T17:25:06.616Z,99731.34
2023-04-15T17:27:33.987Z,99740.88
2023-04-15T17:30:01.402Z,99742.72
2023-04-15T17:32:34.356Z,99744.97
2023-04-15T17:35:06.219Z,99752.91
2023-04-15T17:37:33.714Z,99753.63
2023-04-15T17:40:01.233Z,99755.53
2023-04-15T17:42:28.648Z,99752.09
2023-04-15T17:44:56.049Z,99754.53
2023-04-15T17:47:23.440Z,99767.06
2023-04-15T17:49:50.900Z,99765.34
2023-04-15T17:52:19.593Z,99775.03
2023-04-15T17:54:47.098Z,99769.38
2023-04-15T17:57:14.542Z,99776.84
2023-04-15T17:59:43.995Z,99788.41
2023-04-15T18:02:11.881Z,99780.06
2023-04-15T18:04:39.857Z,99792.69
2023-04-15T18:07:07.410Z,99793.25
2023-04-15T18:09:36.151Z,99794.22
2023-04-15T18:12:04.463Z,99801.06
2023-04-15T18:14:34.706Z,99811.06
2023-04-15T18:17:02.823Z,99810.16
2023-04-15T18:19:31.624Z,99805.75
2023-04-15T18:21:59.947Z,99807.16
2023-04-15T18:24:27.545Z,99812.81
2023-04-15T18:26:56.361Z,99820.13
2023-04-15T18:29:23.966Z,99822.25
2023-04-15T18:31:51.482Z,99832.69
2023-04-15T18:34:18.935Z,99826.66
2023-04-15T18:36:46.789Z,99839.28
2023-04-15T18:39:14.181Z,99839.97
2023-04-15T18:41:41.558Z,99844.06
2023-04-15T18:44:10.267Z,99840.13
2023-04-15T18:46:37.707Z,99851.63
2023-04-15T18:49:05.334Z,99848.72
2023-04-15T18:51:33.290Z,99852.56
2023-04-15T18:54:00.762Z,99857.66
2023-04-15T18:56:28.219Z,99858.50
2023-04-15T18:59:09.240Z,99856.16
2023-04-15T19:01:44.417Z,99852.22
2023-04-15T19:04:12.347Z,99856.88
2023-04-15T19:06:39.801Z,99863.03
2023-04-15T19:09:07.298Z,99875.44
2023-04-15T19:11:34.934Z,99878.03
2023-04-15T19:14:02.318Z,99877.44
2023-04-15T19:16:29.736Z,99877.06
2023-04-15T19:18:58.486Z,99891.13
2023-04-15T19:21:26.080Z,99889.84
2023-04-15T19:23:53.513Z,99894.59
2023-04-15T19:26:20.897Z,99901.28
2023-04-15T19:28:48.271Z,99897.13
2023-04-15T19:31:16.005Z,99893.31
2023-04-15T19:33:43.423Z,99898.41
2023-04-15T19:36:12.163Z,99903.38
2023-04-15T19:38:39.534Z,99902.56
2023-04-15T19:41:06.957Z,99905.84
2023-04-15T19:43:34.340Z,99911.63
2023-04-15T19:46:01.796Z,99917.06
2023-04-15T19:48:29.451Z,99914.84
2023-04-15T19:50:57.820Z,99913.56
2023-04-15T19:53:26.581Z,99923.28
2023-04-15T19:55:55.309Z,99918.25
2023-04-15T19:58:22.727Z,99918.63
2023-04-15T20:00:50.212Z,99925.00
2023-04-15T20:03:18.824Z,99933.22
2023-04-15T20:05:46.309Z,99942.25
2023-04-15T20:08:13.729Z,99936.63
2023-04-15T20:10:42.516Z,99940.94
2023-04-15T20:13:09.900Z,99942.75
2023-04-15T20:15:37.462Z,99951.78
2023-04-15T20:18:05.088Z,99945.31
2023-04-15T20:20:35.095Z,99954.78
2023-04-15T20:23:02.457Z,99965.09
2023-04-15T20:25:29.935Z,99961.47
2023-04-15T20:28:00.873Z,99968.88
2023-04-15T20:30:29.048Z,99966.41
2023-04-15T20:32:56.714Z,99964.03
2023-04-15T20:35:27.887Z,99966.47
2023-04-15T20:37:55.414Z,99969.75
2023-04-15T20:40:23.002Z,99974.16
2023-04-15T20:42:50.841Z,99977.75
2023-04-15T20:45:19.582Z,99982.97
2023-04-15T20:47:46.998Z,99983.44
2023-04-15T20:50:14.440Z,99984.41
2023-04-15T20:52:41.884Z,99990.78
2023-04-15T20:55:09.846Z,99973.75
2023-04-15T20:57:37.266Z,99992.06
2023-04-15T21:00:05.667Z,99986.03
2023-04-15T21:02:34.526Z,100000.09
2023-04-15T21:05:01.959Z,99998.53
2023-04-15T21:07:29.451Z,99990.84
2023-04-15T21:09:57.034Z,99993.16
2023-04-15T21:12:24.459Z,99998.38
2023-04-15T21:14:51.830Z,100005.56
2023-04-15T21:17:19.323Z,100017.38
2023-04-15T21:19:48.046Z,100012.44
2023-04-15T21:22:15.431Z,100016.03
2023-04-15T21:24:42.793Z,100013.63
2023-04-15T21:27:10.530Z,100025.72
2023-04-15T21:29:40.185Z,100021.28
2023-04-15T21:32:07.708Z,100029.50
2023-04-15T21:34:35.376Z,100033.44
2023-04-15T21:37:04.222Z,100026.91
2023-04-15T21:39:31.626Z,100028.69
2023-04-15T21:41:59.379Z,100039.28
2023-04-15T21:44:26.789Z,100029.16
2023-04-15T21:46:54.307Z,100032.41
2023-04-15T21:49:22.715Z,100039.63
2023-04-15T21:51:51.654Z,100046.66
2023-04-15T21:54:22.286Z,100036.91
2023-04-15T21:56:50.794Z,100029.91
2023-04-15T21:59:18.164Z,100042.94
2023-04-15T22:01:45.662Z,100052.13
2023-04-15T22:04:13.245Z,100058.47
2023-04-15T22:06:40.832Z,100058.28
2023-04-15T22:09:08.181Z,100052.22
2023-04-15T22:11:37.183Z,100059.59
2023-04-15T22:14:05.278Z,100055.53
2023-04-15T22:16:32.725Z,100062.25
2023-04-15T22:19:00.293Z,100059.13
2023-04-15T22:21:27.755Z,100074.66
2023-04-15T22:24:33.584Z,100066.81
2023-04-15T22:26:44.044Z,100080.56
2023-04-15T22:29:11.546Z,100078.47
2023-04-15T22:31:38.988Z,100076.66
2023-04-15T22:34:06.510Z,100077.28
2023-04-15T22:36:34.028Z,100081.84
2023-04-15T22:39:01.431Z,100090.72
2023-04-15T22:41:28.916Z,100089.56
2023-04-15T22:43:57.600Z,100093.16
2023-04-15T22:46:25.233Z,100102.00
2023-04-15T22:48:54.056Z,100096.56
2023-04-15T22:51:26.892Z,100098.25
2023-04-15T22:53:54.665Z,100102.84
2023-04-15T22:56:22.634Z,100101.03
2023-04-15T22:58:51.000Z,100105.91
2023-04-15T23:01:20.784Z,100106.41
2023-04-15T23:04:02.527Z,100111.47
2023-04-15T23:06:32.686Z,100103.47
2023-04-15T23:09:00.148Z,100110.53
2023-04-15T23:11:27.512Z,100111.34
2023-04-15T23:13:54.884Z,100117.22
2023-04-15T23:16:23.787Z,100113.31
2023-04-15T23:18:51.224Z,100115.66
2023-04-15T23:21:18.585Z,100126.88
2023-04-15T23:23:46.022Z,100120.81
2023-04-15T23:26:13.686Z,100113.31
2023-04-15T23:28:41.126Z,100124.78
2023-04-15T23:31:08.502Z,100115.66
2023-04-15T23:33:38.088Z,100133.44
2023-04-15T23:36:06.346Z,100125.09
2023-04-15T23:38:33.738Z,100129.69
2023-04-15T23:41:01.097Z,100119.72
2023-04-15T23:43:28.522Z,100126.44
2023-04-15T23:45:56.044Z,100132.63
2023-04-15T23:48:23.634Z,100134.31
2023-04-15T23:50:52.372Z,100138.72
2023-04-15T23:53:19.761Z,100139.84
2023-04-15T23:55:47.227Z,100140.66
2023-04-15T23:58:14.601Z,100142.16
